Time;durP1;ratioP1;P1;durP2;ratioP2;P2;SDS_P1;SDS_P2;PMS_P1;PMS_P2;Temp;Humidity;BMP_temperature;BMP_pressure;BME280_temperature;BME280_humidity;BME280_pressure;Samples;Min_cycle;Max_cycle;Signal;HPM_P1;HPM_P2
2023/11/13 00:00:11;;;;;;;10.20;6.20;;;;;;;5.36;100.00;98359.16;5044247;28;20052;-74
2023/11/13 00:02:36;;;;;;;11.35;6.53;;;;;;;5.34;100.00;98353.13;5061980;28;20044;-74
2023/11/13 00:05:04;;;;;;;9.70;5.90;;;;;;;5.27;100.00;98342.28;5059142;28;20199;-73
2023/11/13 00:07:29;;;;;;;11.35;6.72;;;;;;;5.32;100.00;98360.53;5052986;28;20317;-73
2023/11/13 00:09:54;;;;;;;12.23;7.10;;;;;;;5.26;100.00;98356.69;5062185;28;20052;-73
2023/11/13 00:12:20;;;;;;;12.02;7.10;;;;;;;5.33;100.00;98356.81;5044096;28;20051;-73
2023/11/13 00:14:45;;;;;;;11.73;6.88;;;;;;;5.31;100.00;98348.13;5044393;28;20223;-74
2023/11/13 00:17:10;;;;;;;12.38;6.55;;;;;;;5.25;100.00;98338.13;5061421;28;20052;-74
2023/11/13 00:19:37;;;;;;;10.90;6.70;;;;;;;5.25;100.00;98322.88;5062239;28;20029;-74
2023/11/13 00:22:03;;;;;;;11.13;6.93;;;;;;;5.28;100.00;98327.88;5062127;28;20365;-74
2023/11/13 00:24:28;;;;;;;11.68;7.00;;;;;;;5.35;100.00;98319.94;5061834;28;20025;-74
2023/11/13 00:26:54;;;;;;;9.60;6.40;;;;;;;5.33;100.00;98305.03;5049944;28;20064;-75
2023/11/13 00:29:19;;;;;;;9.48;6.22;;;;;;;5.52;100.00;98311.72;5056801;28;20024;-74
2023/11/13 00:31:44;;;;;;;10.35;6.18;;;;;;;5.41;100.00;98297.75;5044693;28;20241;-74
2023/11/13 00:34:10;;;;;;;11.13;6.20;;;;;;;5.43;100.00;98302.94;5065568;28;20016;-74
2023/11/13 00:36:36;;;;;;;10.55;5.43;;;;;;;5.53;100.00;98303.50;5062821;28;20060;-74
2023/11/13 00:39:02;;;;;;;7.55;4.80;;;;;;;5.55;100.00;98316.72;5047380;28;20032;-74
2023/11/13 00:41:31;;;;;;;10.40;5.10;;;;;;;5.63;100.00;98305.91;5065350;28;20024;-73
2023/11/13 00:43:57;;;;;;;8.32;5.20;;;;;;;5.54;100.00;98301.66;5048794;28;20074;-74
2023/11/13 00:46:22;;;;;;;8.80;5.90;;;;;;;5.58;100.00;98306.47;5064639;28;20322;-74
2023/11/13 00:48:48;;;;;;;10.07;6.10;;;;;;;5.50;100.00;98298.47;5065079;28;20025;-74
2023/11/13 00:51:13;;;;;;;9.05;5.88;;;;;;;5.57;100.00;98298.59;5065124;28;20029;-74
2023/11/13 00:53:39;;;;;;;10.95;6.38;;;;;;;5.51;100.00;98284.06;5065285;28;20348;-74
2023/11/13 00:56:05;;;;;;;10.40;6.85;;;;;;;5.49;100.00;98292.28;5064734;28;20024;-74
2023/11/13 00:58:32;;;;;;;11.57;6.00;;;;;;;5.56;100.00;98297.75;5065104;28;20285;-74
2023/11/13 01:00:58;;;;;;;10.13;5.53;;;;;;;5.57;100.00;98299.41;5064535;28;20086;-74
2023/11/13 01:03:23;;;;;;;8.43;5.10;;;;;;;5.69;100.00;98281.84;5064965;28;20028;-74
2023/11/13 01:05:50;;;;;;;9.00;5.18;;;;;;;5.69;100.00;98289.06;5064590;28;20025;-74
2023/11/13 01:08:15;;;;;;;8.15;5.10;;;;;;;5.68;100.00;98282.03;5076041;28;20037;-74
2023/11/13 01:10:40;;;;;;;7.88;5.00;;;;;;;5.61;100.00;98286.47;5066783;28;20041;-74
2023/11/13 01:13:06;;;;;;;9.80;4.50;;;;;;;5.67;100.00;98294.63;5054125;28;20075;-73
2023/11/13 01:15:32;;;;;;;8.02;4.38;;;;;;;5.69;100.00;98297.94;5064376;28;20021;-73
2023/11/13 01:17:57;;;;;;;7.07;4.22;;;;;;;5.64;100.00;98288.78;5046874;28;20039;-73
2023/11/13 01:20:23;;;;;;;8.45;3.70;;;;;;;5.67;100.00;98291.09;5064646;28;20017;-74
2023/11/13 01:22:49;;;;;;;5.95;4.30;;;;;;;5.72;100.00;98299.44;5064644;28;20040;-74
2023/11/13 01:25:14;;;;;;;8.50;4.45;;;;;;;5.74;100.00;98294.72;5046575;28;20028;-74
2023/11/13 01:27:39;;;;;;;7.40;3.90;;;;;;;5.69;100.00;98286.38;5063821;28;20052;-74
2023/11/13 01:30:06;;;;;;;8.48;4.25;;;;;;;5.76;100.00;98287.28;5064482;28;20051;-73
2023/11/13 01:32:31;;;;;;;7.43;4.30;;;;;;;5.64;100.00;98278.06;5063893;28;20029;-73
2023/11/13 01:34:56;;;;;;;7.82;4.60;;;;;;;5.67;100.00;98272.31;5064397;28;20048;-72
2023/11/13 01:37:22;;;;;;;7.13;4.10;;;;;;;5.69;100.00;98251.50;5058172;28;20032;-73
2023/11/13 01:39:47;;;;;;;7.70;3.83;;;;;;;5.65;100.00;98239.47;5064422;28;20028;-74
2023/11/13 01:42:13;;;;;;;8.48;4.30;;;;;;;5.67;100.00;98240.94;5063886;28;20020;-73
2023/11/13 01:44:38;;;;;;;6.43;3.58;;;;;;;5.67;100.00;98240.13;5063215;28;20025;-74
2023/11/13 01:47:05;;;;;;;6.03;3.85;;;;;;;5.70;100.00;98245.94;5063539;28;20082;-74
2023/11/13 01:49:31;;;;;;;5.55;3.20;;;;;;;5.64;100.00;98245.84;5064405;28;20381;-74
2023/11/13 01:51:57;;;;;;;7.18;3.67;;;;;;;5.62;100.00;98221.06;5061702;28;20040;-74
2023/11/13 01:54:23;;;;;;;7.72;3.60;;;;;;;5.67;100.00;98243.63;5064056;28;20028;-74
2023/11/13 01:56:50;;;;;;;7.75;4.82;;;;;;;5.69;100.00;98238.09;5064003;28;20028;-74
2023/11/13 01:59:16;;;;;;;10.05;4.43;;;;;;;5.75;100.00;98231.97;5064545;28;20025;-74
2023/11/13 02:01:42;;;;;;;9.63;4.30;;;;;;;5.75;100.00;98229.28;5063754;28;20033;-74
2023/11/13 02:04:08;;;;;;;11.88;5.57;;;;;;;5.81;100.00;98220.47;5050776;28;20062;-74
2023/11/13 02:06:33;;;;;;;10.50;5.65;;;;;;;5.86;100.00;98215.38;5063676;28;20503;-73
2023/11/13 02:08:59;;;;;;;9.77;5.72;;;;;;;5.83;100.00;98213.06;5063691;28;20401;-73
2023/11/13 02:11:25;;;;;;;10.13;5.93;;;;;;;5.92;100.00;98225.38;5045658;28;20024;-73
2023/11/13 02:13:52;;;;;;;9.23;5.28;;;;;;;5.96;100.00;98227.72;5060376;28;20048;-74
2023/11/13 02:16:17;;;;;;;9.35;5.60;;;;;;;5.90;100.00;98232.78;5062802;28;20016;-74
2023/11/13 02:18:42;;;;;;;8.52;5.45;;;;;;;5.98;100.00;98234.56;5063665;28;20028;-74
2023/11/13 02:21:08;;;;;;;7.80;4.95;;;;;;;5.97;100.00;98234.72;5045625;28;20216;-74
2023/11/13 02:23:34;;;;;;;6.95;4.15;;;;;;;5.99;100.00;98227.31;5063530;28;20051;-73
2023/11/13 02:26:16;;;;;;;9.38;4.18;;;;;;;5.97;100.00;98230.19;5045366;28;20017;-74
2023/11/13 02:28:42;;;;;;;6.80;3.50;;;;;;;6.04;100.00;98224.91;5063261;28;20384;-73
2023/11/13 02:31:08;;;;;;;8.10;3.60;;;;;;;6.09;100.00;98203.69;5063596;28;20115;-74
2023/11/13 02:33:33;;;;;;;7.38;4.55;;;;;;;6.21;100.00;98225.50;5062387;28;20330;-74
2023/11/13 02:35:59;;;;;;;5.68;3.72;;;;;;;6.15;100.00;98216.34;5063631;28;20099;-74
2023/11/13 02:38:24;;;;;;;5.85;3.70;;;;;;;6.21;100.00;98209.38;5063477;28;20040;-73
2023/11/13 02:40:50;;;;;;;7.97;3.70;;;;;;;6.28;100.00;98216.50;5063038;28;20310;-74
2023/11/13 02:43:15;;;;;;;7.50;3.75;;;;;;;6.34;100.00;98201.47;5063591;28;20059;-74
2023/11/13 02:45:41;;;;;;;6.88;3.70;;;;;;;6.49;100.00;98198.72;5062729;28;20029;-74
2023/11/13 02:48:06;;;;;;;6.53;3.50;;;;;;;6.58;100.00;98205.66;5064120;28;20322;-74
2023/11/13 02:50:32;;;;;;;6.28;3.42;;;;;;;6.65;100.00;98184.19;5046155;28;20404;-74
2023/11/13 02:52:58;;;;;;;10.02;4.03;;;;;;;6.63;100.00;98208.59;5064213;28;20029;-74
2023/11/13 02:55:23;;;;;;;8.07;3.67;;;;;;;6.57;100.00;98160.97;5064067;28;20044;-74
2023/11/13 02:57:50;;;;;;;7.60;4.13;;;;;;;6.66;100.00;98170.56;5047062;28;20261;-74
2023/11/13 03:00:16;;;;;;;6.90;3.90;;;;;;;6.70;100.00;98182.59;5064820;28;20029;-74
2023/11/13 03:02:41;;;;;;;7.15;3.65;;;;;;;6.83;100.00;98186.41;5065081;28;20226;-74
2023/11/13 03:05:08;;;;;;;6.70;4.18;;;;;;;6.84;100.00;98191.63;5064224;28;20074;-74
2023/11/13 03:07:34;;;;;;;7.05;4.38;;;;;;;6.85;100.00;98163.69;5062172;28;20035;-74
2023/11/13 03:09:59;;;;;;;8.38;4.30;;;;;;;6.92;100.00;98163.75;5065593;28;20024;-74
2023/11/13 03:12:26;;;;;;;6.88;3.97;;;;;;;6.97;100.00;98159.44;5047416;28;20051;-74
2023/11/13 03:14:52;;;;;;;6.97;3.78;;;;;;;7.03;100.00;98172.09;5048124;28;20044;-74
2023/11/13 03:17:18;;;;;;;5.63;3.30;;;;;;;7.06;100.00;98160.13;5062771;28;20214;-74
2023/11/13 03:19:44;;;;;;;8.70;3.80;;;;;;;7.14;100.00;98177.97;5048615;28;20064;-74
2023/11/13 03:22:13;;;;;;;7.68;4.18;;;;;;;7.17;100.00;98205.28;5055826;28;20033;-74
2023/11/13 03:24:38;;;;;;;8.63;4.25;;;;;;;6.98;100.00;98177.22;5069955;28;20022;-73
2023/11/13 03:27:03;;;;;;;7.88;3.72;;;;;;;6.85;100.00;98179.00;5071384;28;20029;-73
2023/11/13 03:29:29;;;;;;;9.43;4.80;;;;;;;6.86;100.00;98175.28;5056370;28;20040;-74
2023/11/13 03:31:54;;;;;;;8.23;4.22;;;;;;;6.89;100.00;98178.41;5070039;28;20027;-74
2023/11/13 03:34:20;;;;;;;7.40;4.38;;;;;;;6.89;100.00;98180.25;5075338;28;20029;-74
2023/11/13 03:36:46;;;;;;;10.18;4.35;;;;;;;6.96;100.00;98175.75;5075953;28;20037;-73
2023/11/13 03:39:12;;;;;;;9.70;4.15;;;;;;;6.95;100.00;98179.50;5075728;28;20009;-74
2023/11/13 03:41:37;;;;;;;12.38;4.68;;;;;;;6.97;100.00;98182.81;5061942;28;20059;-75
2023/11/13 03:44:03;;;;;;;8.05;4.63;;;;;;;7.11;100.00;98181.88;5075892;28;20108;-74
2023/11/13 03:46:29;;;;;;;12.32;5.90;;;;;;;7.30;100.00;98192.97;5064370;28;20039;-75
2023/11/13 03:48:55;;;;;;;13.15;6.60;;;;;;;7.38;100.00;98190.13;5060337;28;20021;-73
2023/11/13 03:51:23;;;;;;;9.57;4.03;;;;;;;7.42;100.00;98192.22;5045059;28;20024;-73
2023/11/13 03:53:48;;;;;;;12.90;4.28;;;;;;;7.49;100.00;98197.63;5062381;28;20096;-73
2023/11/13 03:56:13;;;;;;;15.55;4.75;;;;;;;7.47;100.00;98194.31;5048472;28;20055;-74
2023/11/13 03:58:39;;;;;;;12.95;5.97;;;;;;;7.54;100.00;98207.81;5047638;28;20218;-73
2023/11/13 04:01:04;;;;;;;14.65;6.10;;;;;;;7.46;100.00;98206.09;5040111;28;20057;-74
2023/11/13 04:03:29;;;;;;;13.02;5.22;;;;;;;7.52;100.00;98216.09;5053505;28;20364;-74
2023/11/13 04:05:54;;;;;;;10.30;4.82;;;;;;;7.54;100.00;98221.25;5061350;28;20024;-74
2023/11/13 04:08:20;;;;;;;15.27;7.40;;;;;;;7.47;100.00;98213.16;5059863;28;20028;-74
2023/11/13 04:10:45;;;;;;;14.25;7.95;;;;;;;7.48;100.00;98212.13;5040744;28;20049;-73
2023/11/13 04:13:11;;;;;;;15.82;7.75;;;;;;;7.41;100.00;98195.94;5053464;22;20429;-75
2023/11/13 04:15:37;;;;;;;18.40;6.85;;;;;;;7.32;100.00;98196.28;5018590;28;20029;-83
2023/11/13 04:18:03;;;;;;;16.00;7.15;;;;;;;7.30;100.00;98193.78;5023736;28;20025;-81
2023/11/13 04:20:28;;;;;;;11.45;5.95;;;;;;;7.50;100.00;98222.69;5031009;28;20318;-79
2023/11/13 04:22:55;;;;;;;12.40;6.22;;;;;;;7.42;100.00;98224.50;5032306;28;20052;-83
2023/11/13 04:25:20;;;;;;;13.48;6.25;;;;;;;7.50;100.00;98237.00;5032038;28;20021;-84
2023/11/13 04:27:45;;;;;;;13.63;5.90;;;;;;;7.55;100.00;98239.91;5049784;28;20036;-84
2023/11/13 04:30:11;;;;;;;15.43;6.90;;;;;;;7.40;100.00;98228.44;5046589;28;20044;-79
2023/11/13 04:32:37;;;;;;;16.13;6.68;;;;;;;7.21;100.00;98195.00;5030172;28;20025;-79
2023/11/13 04:35:02;;;;;;;18.48;6.93;;;;;;;7.33;100.00;98228.38;5036871;28;20050;-80
2023/11/13 04:37:28;;;;;;;12.38;6.40;;;;;;;7.39;100.00;98240.25;5046830;28;20033;-81
2023/11/13 04:39:53;;;;;;;13.15;6.15;;;;;;;7.34;100.00;98237.31;5037141;28;20025;-81
2023/11/13 04:42:18;;;;;;;11.93;6.47;;;;;;;7.34;100.00;98230.06;5029920;28;20341;-79
2023/11/13 04:44:44;;;;;;;19.23;7.38;;;;;;;7.31;100.00;98233.16;5026674;28;20029;-81
2023/11/13 04:47:09;;;;;;;16.65;8.32;;;;;;;7.39;100.00;98230.28;5031631;28;20025;-80
2023/11/13 04:49:35;;;;;;;16.90;8.00;;;;;;;7.34;100.00;98237.31;5034541;28;20037;-82
2023/11/13 04:52:01;;;;;;;15.77;7.28;;;;;;;7.30;100.00;98217.19;5028318;28;20029;-83
2023/11/13 04:54:26;;;;;;;15.35;7.80;;;;;;;7.31;100.00;98214.31;5023420;28;20223;-81
2023/11/13 04:56:51;;;;;;;13.50;7.03;;;;;;;7.42;100.00;98229.06;5023526;28;20022;-79
2023/11/13 04:59:16;;;;;;;14.13;6.78;;;;;;;7.39;100.00;98216.00;5029875;28;20025;-78
2023/11/13 05:01:42;;;;;;;12.65;6.57;;;;;;;7.47;100.00;98221.25;5021656;28;20026;-81
2023/11/13 05:04:07;;;;;;;15.90;7.20;;;;;;;7.58;100.00;98246.78;5027678;28;20017;-83
2023/11/13 05:06:33;;;;;;;14.50;7.32;;;;;;;7.56;100.00;98236.19;5048333;28;20026;-81
2023/11/13 05:08:58;;;;;;;14.45;7.22;;;;;;;7.55;100.00;98244.47;5034638;28;20029;-80
2023/11/13 05:11:25;;;;;;;13.77;7.53;;;;;;;7.66;100.00;98255.50;5030426;28;20037;-81
2023/11/13 05:13:52;;;;;;;13.75;7.97;;;;;;;7.73;100.00;98254.69;5026720;28;20029;-78
2023/11/13 05:16:22;;;;;;;18.40;9.52;;;;;;;7.81;100.00;98243.78;5040932;28;20039;-83
2023/11/13 05:18:47;;;;;;;17.55;9.98;;;;;;;7.63;100.00;98220.09;5031871;28;20096;-82
2023/11/13 05:21:16;;;;;;;16.23;9.82;;;;;;;7.64;100.00;98222.56;5029409;28;20025;-78
2023/11/13 05:23:41;;;;;;;18.10;8.57;;;;;;;7.70;100.00;98220.94;5027860;28;20021;-80
2023/11/13 05:26:07;;;;;;;18.98;8.30;;;;;;;7.70;100.00;98210.16;5026717;28;20076;-78
2023/11/13 05:28:33;;;;;;;14.90;6.45;;;;;;;7.99;100.00;98254.00;5028902;28;20025;-80
2023/11/13 05:30:58;;;;;;;13.68;6.60;;;;;;;7.84;100.00;98211.91;5030346;28;20037;-77
2023/11/13 05:33:23;;;;;;;14.20;6.18;;;;;;;7.81;100.00;98200.72;5043274;28;20029;-79
2023/11/13 05:35:49;;;;;;;10.50;5.63;;;;;;;8.19;100.00;98240.63;5030229;28;20219;-73
2023/11/13 05:38:15;;;;;;;10.63;5.45;;;;;;;8.20;100.00;98237.75;5034658;28;20096;-73
2023/11/13 05:40:40;;;;;;;11.65;4.88;;;;;;;8.18;100.00;98236.28;5043904;28;20037;-74
2023/11/13 05:43:05;;;;;;;11.98;5.78;;;;;;;8.28;100.00;98247.53;5034488;28;20056;-73
2023/11/13 05:45:31;;;;;;;13.23;5.82;;;;;;;8.23;100.00;98237.34;5027371;28;20025;-79
2023/11/13 05:47:56;;;;;;;10.60;5.25;;;;;;;8.35;100.00;98245.66;5036878;28;20025;-79
2023/11/13 05:50:22;;;;;;;13.68;5.45;;;;;;;8.23;100.00;98236.50;5029400;28;20120;-84
2023/11/13 05:52:48;;;;;;;12.98;6.43;;;;;;;8.29;100.00;98238.38;5030248;28;20017;-82
2023/11/13 05:55:13;;;;;;;12.68;5.22;;;;;;;8.37;100.00;98237.38;5031583;28;20102;-76
2023/11/13 05:57:39;;;;;;;16.75;4.13;;;;;;;8.27;100.00;98217.03;5047012;28;20230;-77
2023/11/13 06:00:06;;;;;;;13.77;6.22;;;;;;;8.33;100.00;98215.38;5026396;28;20025;-77
2023/11/13 06:02:32;;;;;;;10.02;4.38;;;;;;;8.49;100.00;98242.00;5029192;28;20032;-81
2023/11/13 06:04:58;;;;;;;13.98;4.05;;;;;;;8.58;100.00;98252.59;5039474;28;20060;-79
2023/11/13 06:07:23;;;;;;;12.60;4.38;;;;;;;8.55;100.00;98246.56;5030581;28;20038;-77
2023/11/13 06:09:49;;;;;;;12.43;4.18;;;;;;;8.79;100.00;98260.50;5030608;28;20264;-76
2023/11/13 06:12:14;;;;;;;9.05;3.42;;;;;;;8.62;100.00;98226.88;5044173;28;20079;-78
2023/11/13 06:14:39;;;;;;;11.90;3.53;;;;;;;8.79;100.00;98252.44;5041176;28;20033;-78
2023/11/13 06:17:05;;;;;;;14.15;4.25;;;;;;;8.85;100.00;98259.69;5051331;28;20044;-77
2023/11/13 06:19:30;;;;;;;12.07;4.60;;;;;;;8.72;100.00;98228.16;5026312;28;20063;-77
2023/11/13 06:21:55;;;;;;;15.45;5.15;;;;;;;8.84;100.00;98268.81;5025736;28;20069;-75
2023/11/13 06:24:21;;;;;;;20.95;4.22;;;;;;;8.91;100.00;98274.25;5044213;28;20029;-76
2023/11/13 06:26:46;;;;;;;19.35;3.60;;;;;;;8.99;100.00;98285.66;5025428;28;20021;-76
2023/11/13 06:29:11;;;;;;;23.63;3.45;;;;;;;9.03;100.00;98296.03;5038456;28;20021;-73
2023/11/13 06:31:38;;;;;;;16.65;3.20;;;;;;;8.89;100.00;98277.13;5030284;28;20037;-87
2023/11/13 06:34:03;;;;;;;16.95;4.22;;;;;;;8.91;100.00;98282.34;5027293;28;20035;-80
2023/11/13 06:36:30;;;;;;;23.25;3.60;;;;;;;8.86;100.00;98258.66;5039621;28;20021;-81
2023/11/13 06:38:56;;;;;;;13.95;4.93;;;;;;;9.05;100.00;98293.97;5029742;28;20018;-80
2023/11/13 06:41:21;;;;;;;18.65;5.30;;;;;;;9.15;100.00;98297.91;5025933;28;20397;-74
2023/11/13 06:43:47;;;;;;;16.23;3.30;;;;;;;9.07;100.00;98286.50;5024464;28;20337;-85
2023/11/13 06:46:12;;;;;;;22.65;4.88;;;;;;;9.11;100.00;98290.44;5036216;28;20034;-83
2023/11/13 06:48:37;;;;;;;18.25;4.57;;;;;;;9.14;100.00;98292.72;5028103;28;20021;-80
2023/11/13 06:51:03;;;;;;;25.70;4.88;;;;;;;8.98;100.00;98262.41;5048063;28;20055;-81
2023/11/13 06:53:28;;;;;;;21.60;3.90;;;;;;;9.02;100.00;98280.91;5037347;28;20021;-82
2023/11/13 06:55:54;;;;;;;14.98;4.20;;;;;;;9.08;100.00;98280.06;5029566;28;20035;-82
2023/11/13 06:58:22;;;;;;;15.90;3.78;;;;;;;9.20;100.00;98300.00;5032391;28;20032;-86
2023/11/13 07:00:49;;;;;;;24.05;8.07;;;;;;;9.16;100.00;98296.03;5028714;28;20026;-82
2023/11/13 07:03:14;;;;;;;24.38;11.75;;;;;;;9.14;100.00;98293.56;5028313;28;20021;-82
2023/11/13 07:05:39;;;;;;;18.63;6.03;;;;;;;9.13;100.00;98307.25;5026789;28;20036;-80
2023/11/13 07:08:05;;;;;;;20.33;5.88;;;;;;;9.09;100.00;98319.50;5034795;28;20127;-73
2023/11/13 07:10:34;;;;;;;19.33;4.03;;;;;;;9.24;100.00;98330.94;5031929;28;20053;-77
2023/11/13 07:13:00;;;;;;;20.67;3.70;;;;;;;9.23;100.00;98334.69;5043179;28;20385;-83
2023/11/13 07:15:25;;;;;;;17.35;2.83;;;;;;;9.13;100.00;98318.06;5043313;28;20060;-79
2023/11/13 07:17:50;;;;;;;16.83;2.50;;;;;;;9.26;100.00;98344.22;5031188;28;20083;-79
2023/11/13 07:20:18;;;;;;;22.15;2.90;;;;;;;9.21;100.00;98320.53;5041369;28;20025;-80
2023/11/13 07:22:50;;;;;;;23.05;2.72;;;;;;;9.27;100.00;98329.69;5033319;28;20021;-79
2023/11/13 07:25:15;;;;;;;22.10;3.28;;;;;;;9.29;100.00;98336.53;5030417;28;20030;-79
2023/11/13 07:27:40;;;;;;;25.83;3.33;;;;;;;9.26;100.00;98331.56;5027757;28;20032;-76
2023/11/13 07:30:07;;;;;;;22.92;2.90;;;;;;;9.28;100.00;98337.59;5025935;28;20017;-76
2023/11/13 07:32:32;;;;;;;23.63;3.35;;;;;;;9.38;100.00;98335.31;5028136;28;20029;-73
2023/11/13 07:34:57;;;;;;;18.33;3.40;;;;;;;9.38;100.00;98335.31;5042450;28;20037;-74
2023/11/13 07:37:23;;;;;;;23.17;3.40;;;;;;;9.41;100.00;98326.78;5031126;28;20022;-80
2023/11/13 07:39:51;;;;;;;22.92;3.13;;;;;;;9.48;100.00;98325.94;5025578;28;20025;-76
2023/11/13 07:42:17;;;;;;;12.90;2.45;;;;;;;9.51;100.00;98325.53;5012745;28;20024;-77
2023/11/13 07:44:49;;;;;;;23.15;3.30;;;;;;;9.56;100.00;98325.75;5023139;28;20025;-72
2023/11/13 07:47:15;;;;;;;19.98;3.28;;;;;;;9.51;100.00;98312.88;5035899;28;20025;-78
2023/11/13 07:49:43;;;;;;;23.55;3.80;;;;;;;9.48;100.00;98309.75;5013397;28;20318;-79
2023/11/13 07:52:09;;;;;;;21.08;4.25;;;;;;;9.53;100.00;98321.59;5036088;28;20048;-79
2023/11/13 07:54:35;;;;;;;25.00;5.35;;;;;;;9.49;100.00;98333.03;5025947;28;20060;-75
2023/11/13 07:57:00;;;;;;;29.67;4.25;;;;;;;9.57;100.00;98349.03;5024541;28;20024;-79
2023/11/13 07:59:25;;;;;;;23.27;6.38;;;;;;;9.57;100.00;98349.03;5025038;28;20075;-77
2023/11/13 08:01:51;;;;;;;23.77;7.32;;;;;;;9.59;100.00;98358.59;5034335;28;20040;-78
2023/11/13 08:04:17;;;;;;;30.45;9.30;;;;;;;9.53;100.00;98337.78;5026007;28;20135;-73
2023/11/13 08:06:44;;;;;;;40.42;11.38;;;;;;;9.43;100.00;98303.13;5028867;28;20037;-74
2023/11/13 08:09:09;;;;;;;27.95;9.52;;;;;;;9.53;100.00;98335.09;5029149;28;20022;-79
2023/11/13 08:11:35;;;;;;;26.95;7.82;;;;;;;9.48;100.00;98331.34;5038053;28;20021;-76
2023/11/13 08:14:01;;;;;;;24.23;6.68;;;;;;;9.54;100.00;98352.97;5038948;28;20033;-73
2023/11/13 08:16:27;;;;;;;27.60;6.15;;;;;;;9.47;100.00;98329.69;5025105;28;20022;-71
2023/11/13 08:18:52;;;;;;;29.35;6.35;;;;;;;9.44;100.00;98312.06;5046908;28;20085;-71
2023/11/13 08:21:18;;;;;;;20.23;7.57;;;;;;;9.62;100.00;98341.13;5034840;28;20033;-76
2023/11/13 08:23:43;;;;;;;22.00;6.45;;;;;;;9.59;100.00;98328.03;5016290;28;20032;-76
2023/11/13 08:26:09;;;;;;;20.42;6.68;;;;;;;9.52;100.00;98316.41;5061196;28;20048;-78
2023/11/13 08:28:35;;;;;;;29.48;7.18;;;;;;;9.63;100.00;98323.88;5029167;28;20025;-78
2023/11/13 08:31:00;;;;;;;21.25;4.45;;;;;;;9.47;100.00;98317.03;5029615;28;20067;-77
2023/11/13 08:33:26;;;;;;;16.70;4.47;;;;;;;9.54;100.00;98314.34;5025370;28;20053;-79
2023/11/13 08:35:51;;;;;;;25.92;5.22;;;;;;;9.57;100.00;98328.25;5031011;28;20337;-79
2023/11/13 08:38:17;;;;;;;19.38;5.57;;;;;;;9.48;100.00;98312.44;5026032;28;20029;-82
2023/11/13 08:40:43;;;;;;;28.05;5.57;;;;;;;9.54;100.00;98334.06;5055995;28;20020;-84
2023/11/13 08:43:10;;;;;;;25.10;6.18;;;;;;;9.52;100.00;98325.34;5034124;28;20021;-77
2023/11/13 08:45:37;;;;;;;25.23;6.60;;;;;;;9.58;100.00;98326.38;5024528;28;20222;-75
2023/11/13 08:48:03;;;;;;;19.55;5.25;;;;;;;9.51;100.00;98339.03;5041716;28;20028;-77
2023/11/13 08:50:29;;;;;;;17.23;4.72;;;;;;;9.42;100.00;98331.16;5024891;28;20063;-76
2023/11/13 08:52:56;;;;;;;18.38;4.82;;;;;;;9.34;100.00;98317.84;5031111;28;20018;-74
2023/11/13 08:55:23;;;;;;;30.63;4.75;;;;;;;9.31;100.00;98295.84;5027560;28;20032;-78
2023/11/13 08:57:48;;;;;;;24.52;4.90;;;;;;;9.42;100.00;98323.03;5012933;28;20032;-74
2023/11/13 09:00:21;;;;;;;25.42;4.22;;;;;;;9.41;100.00;98301.66;5037446;28;20048;-75
2023/11/13 09:02:47;;;;;;;9.85;3.08;;;;;;;9.32;100.00;98306.44;5030105;28;20025;-75
2023/11/13 09:05:13;;;;;;;15.95;3.63;;;;;;;9.24;100.00;98295.84;5045656;28;20048;-74
2023/11/13 09:07:40;;;;;;;20.83;4.95;;;;;;;9.29;100.00;98287.94;5026939;28;20048;-74
2023/11/13 09:10:08;;;;;;;19.58;3.22;;;;;;;9.08;100.00;98256.59;5027415;28;20104;-74
2023/11/13 09:12:39;;;;;;;10.55;3.10;;;;;;;9.22;100.00;98268.22;5027284;28;20331;-75
2023/11/13 09:15:14;;;;;;;14.95;4.18;;;;;;;9.18;100.00;98242.69;5028425;28;20021;-75
2023/11/13 09:17:45;;;;;;;16.35;2.67;;;;;;;9.17;100.00;98254.53;5026553;28;20017;-79
2023/11/13 09:20:15;;;;;;;12.18;3.17;;;;;;;9.20;100.00;98248.72;5020099;28;20013;-78
2023/11/13 09:22:40;;;;;;;9.57;3.20;;;;;;;9.13;100.00;98215.50;5056151;28;20045;-80
2023/11/13 09:25:07;;;;;;;16.73;4.50;;;;;;;9.35;100.00;98237.69;5033826;28;20060;-80
2023/11/13 09:27:32;;;;;;;15.85;4.55;;;;;;;9.15;100.00;98226.94;5038306;28;20030;-78
2023/11/13 09:29:58;;;;;;;10.73;3.00;;;;;;;9.35;100.00;98251.19;5026993;28;20032;-78
2023/11/13 09:32:23;;;;;;;10.07;3.30;;;;;;;9.28;100.00;98237.72;5026531;28;20310;-78
2023/11/13 09:34:49;;;;;;;17.45;4.20;;;;;;;9.17;100.00;98227.56;5038479;28;20025;-76
2023/11/13 09:37:15;;;;;;;13.85;3.58;;;;;;;9.05;100.00;98218.41;5043885;28;20021;-78
2023/11/13 09:39:42;;;;;;;14.90;3.40;;;;;;;9.26;100.00;98247.06;5038305;28;20048;-77
2023/11/13 09:42:16;;;;;;;24.25;7.93;;;;;;;9.36;100.00;98234.78;5033057;28;20045;-78
2023/11/13 09:44:43;;;;;;;22.38;5.32;;;;;;;9.44;100.00;98237.28;5030497;28;20037;-79
2023/11/13 09:47:13;;;;;;;16.23;2.95;;;;;;;9.40;100.00;98230.63;5024608;28;20029;-78
2023/11/13 09:49:55;;;;;;;11.35;2.40;;;;;;;9.51;100.00;98239.13;5039932;28;20028;-79
2023/11/13 09:52:25;;;;;;;12.70;2.60;;;;;;;9.51;100.00;98231.88;5031994;28;20029;-83
2023/11/13 09:54:51;;;;;;;11.10;2.75;;;;;;;9.59;100.00;98223.53;5024437;28;20356;-82
2023/11/13 09:57:18;;;;;;;8.82;3.13;;;;;;;9.65;100.00;98229.97;5038163;28;20021;-79
2023/11/13 09:59:46;;;;;;;15.05;3.60;;;;;;;9.60;100.00;98211.69;5039871;28;20028;-75
2023/11/13 10:02:14;;;;;;;13.55;3.15;;;;;;;9.71;100.00;98206.69;5041698;28;20029;-76
2023/11/13 10:04:40;;;;;;;12.52;4.18;;;;;;;9.84;100.00;98218.25;5025626;28;20274;-72
2023/11/13 10:07:09;;;;;;;15.00;2.65;;;;;;;9.97;100.00;98222.78;5026231;28;20022;-73
2023/11/13 10:09:35;;;;;;;18.90;2.53;;;;;;;9.84;100.00;98190.41;5033431;28;20475;-73
2023/11/13 10:12:02;;;;;;;13.90;2.25;;;;;;;10.16;100.00;98215.63;5044672;28;20033;-79
2023/11/13 10:14:29;;;;;;;12.77;2.72;;;;;;;10.15;100.00;98214.00;5074570;22;20036;-79
2023/11/13 10:16:56;;;;;;;7.13;2.10;;;;;;;10.20;100.00;98208.78;5057441;28;20016;-77
2023/11/13 10:19:22;;;;;;;8.05;2.30;;;;;;;10.08;100.00;98203.19;5046385;28;20029;-78
2023/11/13 10:21:47;;;;;;;10.82;2.10;;;;;;;10.10;100.00;98200.28;5046153;28;20232;-80
2023/11/13 10:24:21;;;;;;;10.25;2.30;;;;;;;10.16;100.00;98185.91;5032159;28;20059;-74
2023/11/13 10:26:55;;;;;;;6.63;1.75;;;;;;;10.18;100.00;98174.88;5044147;28;20218;-77
2023/11/13 10:29:27;;;;;;;8.00;2.22;;;;;;;10.18;100.00;98164.91;5044206;28;20022;-77
2023/11/13 10:31:53;;;;;;;6.82;2.08;;;;;;;10.14;100.00;98152.03;5043368;28;20085;-78
2023/11/13 10:34:20;;;;;;;4.65;1.90;;;;;;;10.17;100.00;98163.25;5044405;28;20071;-77
2023/11/13 10:37:05;;;;;;;8.07;1.95;;;;;;;10.25;100.00;98156.75;5026987;28;20028;-79
2023/11/13 10:39:36;;;;;;;7.57;1.95;;;;;;;10.26;100.00;98161.94;5045056;28;20021;-80
2023/11/13 10:42:05;;;;;;;12.13;2.13;;;;;;;10.27;100.00;98155.53;5053517;28;20044;-74
2023/11/13 10:44:36;;;;;;;8.05;1.95;;;;;;;10.35;100.00;98148.19;5041158;28;20025;-74
2023/11/13 10:47:19;;;;;;;9.38;2.10;;;;;;;10.42;100.00;98143.56;5028482;28;20052;-74
2023/11/13 10:49:46;;;;;;;10.43;2.45;;;;;;;10.49;100.00;98149.78;5039143;28;20222;-73
2023/11/13 10:52:13;;;;;;;8.55;2.13;;;;;;;10.55;100.00;98121.84;5041836;28;20085;-74
2023/11/13 10:54:38;;;;;;;9.20;1.60;;;;;;;10.54;100.00;98136.41;5043072;28;20060;-74
2023/11/13 10:57:08;;;;;;;5.53;2.10;;;;;;;10.65;100.00;98124.06;5043246;28;20017;-74
2023/11/13 10:59:35;;;;;;;5.85;2.15;;;;;;;10.68;100.00;98127.13;5043104;28;20056;-74
2023/11/13 11:02:05;;;;;;;9.43;1.92;;;;;;;10.79;100.00;98127.47;5042426;28;20071;-74
2023/11/13 11:04:31;;;;;;;12.98;2.88;;;;;;;10.87;100.00;98124.47;5038543;28;20322;-74
2023/11/13 11:06:58;;;;;;;7.32;2.22;;;;;;;10.81;100.00;98104.56;5035455;28;20061;-74
2023/11/13 11:09:24;;;;;;;12.93;2.95;;;;;;;10.78;100.00;98101.47;5042791;28;20037;-74
2023/11/13 11:11:50;;;;;;;10.48;2.58;;;;;;;10.89;100.00;98119.69;5042648;28;20029;-74
2023/11/13 11:14:31;;;;;;;8.07;2.47;;;;;;;10.97;100.00;98109.41;5039963;28;20033;-74
2023/11/13 11:17:08;;;;;;;8.52;2.30;;;;;;;11.05;100.00;98110.97;5035748;28;20254;-74
2023/11/13 11:19:44;;;;;;;11.65;2.63;;;;;;;11.10;100.00;98111.16;5039385;28;20096;-74
2023/11/13 11:22:23;;;;;;;8.88;2.08;;;;;;;11.11;100.00;98102.00;5042785;28;20029;-74